sensor_id;sensor_type;location;lat;lon;timestamp;temperature;humidity
43772;HTU21D;59066;54.782;32.024;2023-09-18T00:00:56;14.68;80.06
43772;HTU21D;59066;54.782;32.024;2023-09-18T00:03:24;14.72;79.76
43772;HTU21D;59066;54.782;32.024;2023-09-18T00:05:53;14.79;79.82
43772;HTU21D;59066;54.782;32.024;2023-09-18T00:08:20;14.83;79.64
43772;HTU21D;59066;54.782;32.024;2023-09-18T00:10:55;14.87;79.56
43772;HTU21D;59066;54.782;32.024;2023-09-18T00:13:22;14.92;79.68
43772;HTU21D;59066;54.782;32.024;2023-09-18T00:15:55;14.87;79.86
43772;HTU21D;59066;54.782;32.024;2023-09-18T00:18:22;14.93;79.66
43772;HTU21D;59066;54.782;32.024;2023-09-18T00:20:50;14.98;79.62
43772;HTU21D;59066;54.782;32.024;2023-09-18T00:23:19;15.02;79.46
43772;HTU21D;59066;54.782;32.024;2023-09-18T00:25:46;15.07;79.42
43772;HTU21D;59066;54.782;32.024;2023-09-18T00:28:14;15.14;79.13
43772;HTU21D;59066;54.782;32.024;2023-09-18T00:30:49;15.17;78.98
43772;HTU21D;59066;54.782;32.024;2023-09-18T00:33:17;15.11;79.11
43772;HTU21D;59066;54.782;32.024;2023-09-18T00:35:50;15.09;79.21
43772;HTU21D;59066;54.782;32.024;2023-09-18T00:38:18;15.10;79.23
43772;HTU21D;59066;54.782;32.024;2023-09-18T00:40:47;15.16;78.79
43772;HTU21D;59066;54.782;32.024;2023-09-18T00:43:14;15.13;79.09
43772;HTU21D;59066;54.782;32.024;2023-09-18T00:45:44;15.17;78.92
43772;HTU21D;59066;54.782;32.024;2023-09-18T00:48:14;15.13;79.17
43772;HTU21D;59066;54.782;32.024;2023-09-18T00:50:45;15.12;78.98
43772;HTU21D;59066;54.782;32.024;2023-09-18T00:53:20;15.11;79.21
43772;HTU21D;59066;54.782;32.024;2023-09-18T00:55:50;15.17;78.87
43772;HTU21D;59066;54.782;32.024;2023-09-18T00:58:21;15.23;78.67
43772;HTU21D;59066;54.782;32.024;2023-09-18T01:03:34;15.28;78.56
43772;HTU21D;59066;54.782;32.024;2023-09-18T01:06:02;15.28;78.48
43772;HTU21D;59066;54.782;32.024;2023-09-18T01:08:30;15.28;78.70
43772;HTU21D;59066;54.782;32.024;2023-09-18T01:11:09;15.33;78.42
43772;HTU21D;59066;54.782;32.024;2023-09-18T01:13:44;15.37;78.38
43772;HTU21D;59066;54.782;32.024;2023-09-18T01:16:22;15.36;78.43
43772;HTU21D;59066;54.782;32.024;2023-09-18T01:18:52;15.33;78.53
43772;HTU21D;59066;54.782;32.024;2023-09-18T01:21:19;15.31;78.59
43772;HTU21D;59066;54.782;32.024;2023-09-18T01:23:50;15.36;78.40
43772;HTU21D;59066;54.782;32.024;2023-09-18T01:26:19;15.33;78.47
43772;HTU21D;59066;54.782;32.024;2023-09-18T01:28:46;15.37;78.31
43772;HTU21D;59066;54.782;32.024;2023-09-18T01:31:14;15.42;78.06
43772;HTU21D;59066;54.782;32.024;2023-09-18T01:33:41;15.43;78.24
43772;HTU21D;59066;54.782;32.024;2023-09-18T01:36:10;15.38;78.14
43772;HTU21D;59066;54.782;32.024;2023-09-18T01:38:38;15.39;78.09
43772;HTU21D;59066;54.782;32.024;2023-09-18T01:41:06;15.40;78.24
43772;HTU21D;59066;54.782;32.024;2023-09-18T01:43:33;15.43;78.03
43772;HTU21D;59066;54.782;32.024;2023-09-18T01:46:03;15.43;78.05
43772;HTU21D;59066;54.782;32.024;2023-09-18T01:48:30;15.41;78.14
43772;HTU21D;59066;54.782;32.024;2023-09-18T01:50:58;15.41;78.08
43772;HTU21D;59066;54.782;32.024;2023-09-18T01:53:25;15.42;78.13
43772;HTU21D;59066;54.782;32.024;2023-09-18T01:55:53;15.41;78.19
43772;HTU21D;59066;54.782;32.024;2023-09-18T01:58:21;15.46;77.99
43772;HTU21D;59066;54.782;32.024;2023-09-18T02:00:48;15.43;78.20
43772;HTU21D;59066;54.782;32.024;2023-09-18T02:03:15;15.43;78.03
43772;HTU21D;59066;54.782;32.024;2023-09-18T02:06:05;15.49;77.99
43772;HTU21D;59066;54.782;32.024;2023-09-18T02:08:32;15.44;78.02
43772;HTU21D;59066;54.782;32.024;2023-09-18T02:11:00;15.44;77.94
43772;HTU21D;59066;54.782;32.024;2023-09-18T02:13:27;15.40;78.27
43772;HTU21D;59066;54.782;32.024;2023-09-18T02:15:55;15.41;78.11
43772;HTU21D;59066;54.782;32.024;2023-09-18T02:18:22;15.39;78.27
43772;HTU21D;59066;54.782;32.024;2023-09-18T02:20:50;15.40;78.19
43772;HTU21D;59066;54.782;32.024;2023-09-18T02:23:18;15.34;78.24
43772;HTU21D;59066;54.782;32.024;2023-09-18T02:25:46;15.32;78.30
43772;HTU21D;59066;54.782;32.024;2023-09-18T02:28:14;15.32;78.10
43772;HTU21D;59066;54.782;32.024;2023-09-18T02:30:43;15.27;78.30
43772;HTU21D;59066;54.782;32.024;2023-09-18T02:33:12;15.24;78.52
43772;HTU21D;59066;54.782;32.024;2023-09-18T02:35:40;15.24;78.57
43772;HTU21D;59066;54.782;32.024;2023-09-18T02:38:07;15.22;78.75
43772;HTU21D;59066;54.782;32.024;2023-09-18T02:40:35;15.24;78.64
43772;HTU21D;59066;54.782;32.024;2023-09-18T02:43:04;15.24;78.59
43772;HTU21D;59066;54.782;32.024;2023-09-18T02:45:32;15.25;78.61
43772;HTU21D;59066;54.782;32.024;2023-09-18T02:48:00;15.18;78.67
43772;HTU21D;59066;54.782;32.024;2023-09-18T02:50:28;15.21;78.70
43772;HTU21D;59066;54.782;32.024;2023-09-18T02:52:55;15.19;78.47
43772;HTU21D;59066;54.782;32.024;2023-09-18T02:55:23;15.17;78.69
43772;HTU21D;59066;54.782;32.024;2023-09-18T02:57:50;15.19;78.55
43772;HTU21D;59066;54.782;32.024;2023-09-18T03:00:18;15.19;78.58
43772;HTU21D;59066;54.782;32.024;2023-09-18T03:02:59;15.18;78.59
43772;HTU21D;59066;54.782;32.024;2023-09-18T03:05:27;15.17;78.53
43772;HTU21D;59066;54.782;32.024;2023-09-18T03:07:54;15.13;78.84
43772;HTU21D;59066;54.782;32.024;2023-09-18T03:10:22;15.10;79.01
43772;HTU21D;59066;54.782;32.024;2023-09-18T03:12:49;15.12;78.80
43772;HTU21D;59066;54.782;32.024;2023-09-18T03:15:17;15.13;78.95
43772;HTU21D;59066;54.782;32.024;2023-09-18T03:17:44;15.10;79.07
43772;HTU21D;59066;54.782;32.024;2023-09-18T03:20:12;15.09;78.91
43772;HTU21D;59066;54.782;32.024;2023-09-18T03:22:40;15.10;78.92
43772;HTU21D;59066;54.782;32.024;2023-09-18T03:25:07;15.08;78.84
43772;HTU21D;59066;54.782;32.024;2023-09-18T03:27:35;15.07;78.80
43772;HTU21D;59066;54.782;32.024;2023-09-18T03:30:03;15.02;78.98
43772;HTU21D;59066;54.782;32.024;2023-09-18T03:32:31;15.01;79.06
43772;HTU21D;59066;54.782;32.024;2023-09-18T03:34:59;14.98;79.03
43772;HTU21D;59066;54.782;32.024;2023-09-18T03:37:26;14.94;79.14
43772;HTU21D;59066;54.782;32.024;2023-09-18T03:39:54;14.95;79.20
43772;HTU21D;59066;54.782;32.024;2023-09-18T03:42:22;14.89;79.24
43772;HTU21D;59066;54.782;32.024;2023-09-18T03:44:49;14.86;79.54
43772;HTU21D;59066;54.782;32.024;2023-09-18T03:47:16;14.85;79.45
43772;HTU21D;59066;54.782;32.024;2023-09-18T03:49:44;14.86;79.43
43772;HTU21D;59066;54.782;32.024;2023-09-18T03:52:12;14.81;79.72
43772;HTU21D;59066;54.782;32.024;2023-09-18T03:54:39;14.78;79.76
43772;HTU21D;59066;54.782;32.024;2023-09-18T03:57:06;14.74;80.18
43772;HTU21D;59066;54.782;32.024;2023-09-18T03:59:37;14.72;80.11
43772;HTU21D;59066;54.782;32.024;2023-09-18T04:02:04;14.67;80.54
43772;HTU21D;59066;54.782;32.024;2023-09-18T04:04:32;14.62;80.69
43772;HTU21D;59066;54.782;32.024;2023-09-18T04:06:59;14.65;80.91
43772;HTU21D;59066;54.782;32.024;2023-09-18T04:09:27;14.64;80.92
43772;HTU21D;59066;54.782;32.024;2023-09-18T04:11:54;14.67;80.82
43772;HTU21D;59066;54.782;32.024;2023-09-18T04:14:23;14.72;80.58
43772;HTU21D;59066;54.782;32.024;2023-09-18T04:16:51;14.73;80.66
43772;HTU21D;59066;54.782;32.024;2023-09-18T04:19:19;14.75;80.69
43772;HTU21D;59066;54.782;32.024;2023-09-18T04:21:47;14.78;80.94
43772;HTU21D;59066;54.782;32.024;2023-09-18T04:24:15;14.78;80.95
43772;HTU21D;59066;54.782;32.024;2023-09-18T04:26:42;14.79;80.98
43772;HTU21D;59066;54.782;32.024;2023-09-18T04:29:10;14.84;81.02
43772;HTU21D;59066;54.782;32.024;2023-09-18T04:31:38;14.92;80.82
43772;HTU21D;59066;54.782;32.024;2023-09-18T04:34:05;14.93;80.83
43772;HTU21D;59066;54.782;32.024;2023-09-18T04:36:33;15.01;80.41
43772;HTU21D;59066;54.782;32.024;2023-09-18T04:39:03;15.07;80.52
43772;HTU21D;59066;54.782;32.024;2023-09-18T04:41:33;15.11;80.45
43772;HTU21D;59066;54.782;32.024;2023-09-18T04:44:03;15.11;80.36
43772;HTU21D;59066;54.782;32.024;2023-09-18T04:46:33;15.15;80.36
43772;HTU21D;59066;54.782;32.024;2023-09-18T04:49:02;15.21;80.30
43772;HTU21D;59066;54.782;32.024;2023-09-18T04:51:32;15.28;80.24
43772;HTU21D;59066;54.782;32.024;2023-09-18T04:54:00;15.28;80.22
43772;HTU21D;59066;54.782;32.024;2023-09-18T04:56:29;15.32;80.09
43772;HTU21D;59066;54.782;32.024;2023-09-18T04:58:57;15.33;79.82
43772;HTU21D;59066;54.782;32.024;2023-09-18T05:01:25;15.38;79.87
43772;HTU21D;59066;54.782;32.024;2023-09-18T05:03:53;15.42;79.64
43772;HTU21D;59066;54.782;32.024;2023-09-18T05:06:20;15.39;79.68
43772;HTU21D;59066;54.782;32.024;2023-09-18T05:08:48;15.48;79.61
43772;HTU21D;59066;54.782;32.024;2023-09-18T05:11:15;15.54;79.31
43772;HTU21D;59066;54.782;32.024;2023-09-18T05:13:43;15.55;79.26
43772;HTU21D;59066;54.782;32.024;2023-09-18T05:16:11;15.59;79.18
43772;HTU21D;59066;54.782;32.024;2023-09-18T05:18:38;15.67;78.98
43772;HTU21D;59066;54.782;32.024;2023-09-18T05:21:09;15.75;78.66
43772;HTU21D;59066;54.782;32.024;2023-09-18T05:23:36;15.74;78.56
43772;HTU21D;59066;54.782;32.024;2023-09-18T05:26:04;15.81;78.55
43772;HTU21D;59066;54.782;32.024;2023-09-18T05:28:32;15.81;78.40
43772;HTU21D;59066;54.782;32.024;2023-09-18T05:30:59;15.84;78.40
43772;HTU21D;59066;54.782;32.024;2023-09-18T05:33:27;15.86;78.18
43772;HTU21D;59066;54.782;32.024;2023-09-18T05:35:56;15.85;78.19
43772;HTU21D;59066;54.782;32.024;2023-09-18T05:38:25;15.85;78.20
43772;HTU21D;59066;54.782;32.024;2023-09-18T05:40:52;15.95;77.98
43772;HTU21D;59066;54.782;32.024;2023-09-18T05:43:20;16.00;77.72
43772;HTU21D;59066;54.782;32.024;2023-09-18T05:45:47;15.99;77.80
43772;HTU21D;59066;54.782;32.024;2023-09-18T05:48:16;16.00;77.71
43772;HTU21D;59066;54.782;32.024;2023-09-18T05:50:44;16.01;77.67
43772;HTU21D;59066;54.782;32.024;2023-09-18T05:53:11;16.05;77.54
43772;HTU21D;59066;54.782;32.024;2023-09-18T05:55:39;16.13;77.39
43772;HTU21D;59066;54.782;32.024;2023-09-18T05:58:07;16.11;77.40
43772;HTU21D;59066;54.782;32.024;2023-09-18T06:00:35;16.16;77.26
43772;HTU21D;59066;54.782;32.024;2023-09-18T06:03:04;16.17;77.20
43772;HTU21D;59066;54.782;32.024;2023-09-18T06:05:33;16.24;77.19
43772;HTU21D;59066;54.782;32.024;2023-09-18T06:08:01;16.29;77.12
43772;HTU21D;59066;54.782;32.024;2023-09-18T06:10:29;16.37;76.91
43772;HTU21D;59066;54.782;32.024;2023-09-18T06:12:56;16.46;76.63
43772;HTU21D;59066;54.782;32.024;2023-09-18T06:15:25;16.46;76.57
43772;HTU21D;59066;54.782;32.024;2023-09-18T06:17:53;16.52;76.60
43772;HTU21D;59066;54.782;32.024;2023-09-18T06:20:20;16.61;76.57
43772;HTU21D;59066;54.782;32.024;2023-09-18T06:22:49;16.70;76.09
43772;HTU21D;59066;54.782;32.024;2023-09-18T06:25:16;16.72;76.15
43772;HTU21D;59066;54.782;32.024;2023-09-18T06:27:44;16.73;75.98
43772;HTU21D;59066;54.782;32.024;2023-09-18T06:30:11;16.77;75.99
43772;HTU21D;59066;54.782;32.024;2023-09-18T06:32:39;16.88;75.70
43772;HTU21D;59066;54.782;32.024;2023-09-18T06:35:07;16.93;75.37
43772;HTU21D;59066;54.782;32.024;2023-09-18T06:37:34;17.00;75.41
43772;HTU21D;59066;54.782;32.024;2023-09-18T06:40:02;17.05;75.12
43772;HTU21D;59066;54.782;32.024;2023-09-18T06:42:32;17.09;75.01
43772;HTU21D;59066;54.782;32.024;2023-09-18T06:45:00;17.15;74.77
43772;HTU21D;59066;54.782;32.024;2023-09-18T06:47:30;17.18;74.83
43772;HTU21D;59066;54.782;32.024;2023-09-18T06:49:57;17.25;74.54
43772;HTU21D;59066;54.782;32.024;2023-09-18T06:52:25;17.25;74.57
43772;HTU21D;59066;54.782;32.024;2023-09-18T06:54:53;17.31;74.33
43772;HTU21D;59066;54.782;32.024;2023-09-18T06:57:21;17.40;74.13
43772;HTU21D;59066;54.782;32.024;2023-09-18T06:59:48;17.46;73.87
43772;HTU21D;59066;54.782;32.024;2023-09-18T07:02:16;17.56;73.69
43772;HTU21D;59066;54.782;32.024;2023-09-18T07:04:44;17.67;73.40
43772;HTU21D;59066;54.782;32.024;2023-09-18T07:07:15;17.73;73.12
43772;HTU21D;59066;54.782;32.024;2023-09-18T07:09:42;17.77;72.97
43772;HTU21D;59066;54.782;32.024;2023-09-18T07:12:13;17.80;73.02
43772;HTU21D;59066;54.782;32.024;2023-09-18T07:14:40;17.87;72.74
43772;HTU21D;59066;54.782;32.024;2023-09-18T07:17:08;17.90;72.62
43772;HTU21D;59066;54.782;32.024;2023-09-18T07:19:35;17.98;72.40
43772;HTU21D;59066;54.782;32.024;2023-09-18T07:22:03;18.08;72.29
43772;HTU21D;59066;54.782;32.024;2023-09-18T07:24:33;18.20;71.92
43772;HTU21D;59066;54.782;32.024;2023-09-18T07:27:00;18.29;71.56
43772;HTU21D;59066;54.782;32.024;2023-09-18T07:29:28;18.36;71.39
43772;HTU21D;59066;54.782;32.024;2023-09-18T07:31:56;18.42;71.13
43772;HTU21D;59066;54.782;32.024;2023-09-18T07:34:23;18.48;70.90
43772;HTU21D;59066;54.782;32.024;2023-09-18T07:36:50;18.54;70.81
43772;HTU21D;59066;54.782;32.024;2023-09-18T07:39:21;18.61;70.53
43772;HTU21D;59066;54.782;32.024;2023-09-18T07:41:48;18.64;70.24
43772;HTU21D;59066;54.782;32.024;2023-09-18T07:44:20;18.71;69.87
43772;HTU21D;59066;54.782;32.024;2023-09-18T07:46:48;18.79;69.80
43772;HTU21D;59066;54.782;32.024;2023-09-18T07:49:15;18.89;69.58
43772;HTU21D;59066;54.782;32.024;2023-09-18T07:51:44;18.94;69.31
43772;HTU21D;59066;54.782;32.024;2023-09-18T07:54:14;19.05;68.97
43772;HTU21D;59066;54.782;32.024;2023-09-18T07:56:43;19.11;68.97
43772;HTU21D;59066;54.782;32.024;2023-09-18T07:59:10;19.16;68.81
43772;HTU21D;59066;54.782;32.024;2023-09-18T08:01:38;19.27;68.58
43772;HTU21D;59066;54.782;32.024;2023-09-18T08:04:05;19.43;67.95
43772;HTU21D;59066;54.782;32.024;2023-09-18T08:06:33;19.42;67.22
43772;HTU21D;59066;54.782;32.024;2023-09-18T08:09:00;19.51;67.10
43772;HTU21D;59066;54.782;32.024;2023-09-18T08:11:28;19.65;66.90
43772;HTU21D;59066;54.782;32.024;2023-09-18T08:13:55;19.75;66.54
43772;HTU21D;59066;54.782;32.024;2023-09-18T08:16:23;19.86;66.27
43772;HTU21D;59066;54.782;32.024;2023-09-18T08:18:50;19.94;65.97
43772;HTU21D;59066;54.782;32.024;2023-09-18T08:21:18;19.99;65.29
43772;HTU21D;59066;54.782;32.024;2023-09-18T08:23:45;20.09;64.76
43772;HTU21D;59066;54.782;32.024;2023-09-18T08:26:13;20.15;64.30
43772;HTU21D;59066;54.782;32.024;2023-09-18T08:28:41;20.26;64.06
43772;HTU21D;59066;54.782;32.024;2023-09-18T08:31:11;20.41;63.71
43772;HTU21D;59066;54.782;32.024;2023-09-18T08:33:38;20.49;63.34
43772;HTU21D;59066;54.782;32.024;2023-09-18T08:36:06;20.61;63.10
43772;HTU21D;59066;54.782;32.024;2023-09-18T08:38:33;20.65;62.51
43772;HTU21D;59066;54.782;32.024;2023-09-18T08:41:01;20.65;61.95
43772;HTU21D;59066;54.782;32.024;2023-09-18T08:43:32;20.57;62.08
43772;HTU21D;59066;54.782;32.024;2023-09-18T08:45:59;20.70;61.81
43772;HTU21D;59066;54.782;32.024;2023-09-18T08:48:31;20.63;61.91
43772;HTU21D;59066;54.782;32.024;2023-09-18T08:51:03;20.76;61.76
43772;HTU21D;59066;54.782;32.024;2023-09-18T08:53:33;20.88;61.41
43772;HTU21D;59066;54.782;32.024;2023-09-18T08:56:02;20.98;61.17
43772;HTU21D;59066;54.782;32.024;2023-09-18T08:58:32;21.07;60.96
43772;HTU21D;59066;54.782;32.024;2023-09-18T09:01:03;21.22;60.63
43772;HTU21D;59066;54.782;32.024;2023-09-18T09:03:33;21.19;60.06
43772;HTU21D;59066;54.782;32.024;2023-09-18T09:06:01;21.25;60.13
43772;HTU21D;59066;54.782;32.024;2023-09-18T09:08:29;21.31;59.83
43772;HTU21D;59066;54.782;32.024;2023-09-18T09:10:57;21.34;59.43
43772;HTU21D;59066;54.782;32.024;2023-09-18T09:13:27;21.30;59.57
43772;HTU21D;59066;54.782;32.024;2023-09-18T09:16:10;21.43;59.25
43772;HTU21D;59066;54.782;32.024;2023-09-18T09:18:50;21.40;59.30
43772;HTU21D;59066;54.782;32.024;2023-09-18T09:21:19;21.45;59.10
43772;HTU21D;59066;54.782;32.024;2023-09-18T09:23:48;21.54;59.14
43772;HTU21D;59066;54.782;32.024;2023-09-18T09:26:21;21.57;58.64
43772;HTU21D;59066;54.782;32.024;2023-09-18T09:28:50;21.52;58.64
43772;HTU21D;59066;54.782;32.024;2023-09-18T09:31:29;21.66;58.01
43772;HTU21D;59066;54.782;32.024;2023-09-18T09:33:58;21.76;58.00
43772;HTU21D;59066;54.782;32.024;2023-09-18T09:36:26;21.87;57.77
43772;HTU21D;59066;54.782;32.024;2023-09-18T09:38:57;22.02;57.24
43772;HTU21D;59066;54.782;32.024;2023-09-18T09:41:26;22.06;57.24
43772;HTU21D;59066;54.782;32.024;2023-09-18T09:43:55;22.07;57.00
43772;HTU21D;59066;54.782;32.024;2023-09-18T09:46:23;22.20;56.93
43772;HTU21D;59066;54.782;32.024;2023-09-18T09:49:06;22.26;55.81
43772;HTU21D;59066;54.782;32.024;2023-09-18T09:51:33;22.36;56.10
43772;HTU21D;59066;54.782;32.024;2023-09-18T09:54:04;22.42;55.82
43772;HTU21D;59066;54.782;32.024;2023-09-18T09:56:48;22.76;54.82
43772;HTU21D;59066;54.782;32.024;2023-09-18T09:59:19;23.06;54.48
43772;HTU21D;59066;54.782;32.024;2023-09-18T10:01:48;23.42;54.54
43772;HTU21D;59066;54.782;32.024;2023-09-18T10:04:19;23.94;54.35
43772;HTU21D;59066;54.782;32.024;2023-09-18T10:07:13;24.77;50.86
43772;HTU21D;59066;54.782;32.024;2023-09-18T10:09:43;25.65;52.08
43772;HTU21D;59066;54.782;32.024;2023-09-18T10:12:15;26.38;50.35
43772;HTU21D;59066;54.782;32.024;2023-09-18T10:14:47;26.37;48.60
43772;HTU21D;59066;54.782;32.024;2023-09-18T10:17:27;26.24;48.45
43772;HTU21D;59066;54.782;32.024;2023-09-18T10:22:39;27.10;44.29
43772;HTU21D;59066;54.782;32.024;2023-09-18T10:25:17;27.84;43.51
43772;HTU21D;59066;54.782;32.024;2023-09-18T10:27:48;28.21;41.45
43772;HTU21D;59066;54.782;32.024;2023-09-18T10:30:25;28.29;40.36
43772;HTU21D;59066;54.782;32.024;2023-09-18T10:32:54;28.54;39.42
43772;HTU21D;59066;54.782;32.024;2023-09-18T10:35:23;29.05;38.28
43772;HTU21D;59066;54.782;32.024;2023-09-18T10:37:51;29.67;36.60
43772;HTU21D;59066;54.782;32.024;2023-09-18T10:40:21;30.32;35.63
43772;HTU21D;59066;54.782;32.024;2023-09-18T10:42:52;30.93;34.08
43772;HTU21D;59066;54.782;32.024;2023-09-18T10:45:23;31.14;33.49
43772;HTU21D;59066;54.782;32.024;2023-09-18T10:47:51;31.24;33.15
43772;HTU21D;59066;54.782;32.024;2023-09-18T10:50:27;32.07;30.87
43772;HTU21D;59066;54.782;32.024;2023-09-18T10:52:57;31.76;30.92
43772;HTU21D;59066;54.782;32.024;2023-09-18T10:55:25;31.44;31.25
43772;HTU21D;59066;54.782;32.024;2023-09-18T10:57:58;31.53;30.44
43772;HTU21D;59066;54.782;32.024;2023-09-18T11:00:28;31.80;30.12
43772;HTU21D;59066;54.782;32.024;2023-09-18T11:03:15;32.47;28.92
43772;HTU21D;59066;54.782;32.024;2023-09-18T11:05:47;32.88;28.40
43772;HTU21D;59066;54.782;32.024;2023-09-18T11:08:27;32.72;27.74
43772;HTU21D;59066;54.782;32.024;2023-09-18T11:11:02;32.82;27.79
43772;HTU21D;59066;54.782;32.024;2023-09-18T11:13:42;33.74;26.91
43772;HTU21D;59066;54.782;32.024;2023-09-18T11:18:42;34.44;25.88
43772;HTU21D;59066;54.782;32.024;2023-09-18T11:21:11;35.08;24.38
43772;HTU21D;59066;54.782;32.024;2023-09-18T11:23:39;34.86;24.15
43772;HTU21D;59066;54.782;32.024;2023-09-18T11:26:10;35.41;23.79
43772;HTU21D;59066;54.782;32.024;2023-09-18T11:28:38;35.93;22.43
43772;HTU21D;59066;54.782;32.024;2023-09-18T11:31:07;36.33;21.80
43772;HTU21D;59066;54.782;32.024;2023-09-18T11:33:40;36.33;20.81
43772;HTU21D;59066;54.782;32.024;2023-09-18T11:36:11;36.36;21.69
43772;HTU21D;59066;54.782;32.024;2023-09-18T11:38:59;36.01;21.18
43772;HTU21D;59066;54.782;32.024;2023-09-18T11:41:35;36.08;21.05
43772;HTU21D;59066;54.782;32.024;2023-09-18T11:46:48;36.02;21.46
43772;HTU21D;59066;54.782;32.024;2023-09-18T11:49:23;35.50;21.78
43772;HTU21D;59066;54.782;32.024;2023-09-18T11:51:54;34.97;22.11
43772;HTU21D;59066;54.782;32.024;2023-09-18T11:54:22;34.45;22.37
43772;HTU21D;59066;54.782;32.024;2023-09-18T11:56:50;33.94;23.23
43772;HTU21D;59066;54.782;32.024;2023-09-18T11:59:17;33.47;24.05
43772;HTU21D;59066;54.782;32.024;2023-09-18T12:01:56;33.75;23.79
43772;HTU21D;59066;54.782;32.024;2023-09-18T12:04:34;33.47;24.38
43772;HTU21D;59066;54.782;32.024;2023-09-18T12:07:05;32.68;25.20
43772;HTU21D;59066;54.782;32.024;2023-09-18T12:09:33;32.54;25.41
43772;HTU21D;59066;54.782;32.024;2023-09-18T12:12:01;32.68;25.47
43772;HTU21D;59066;54.782;32.024;2023-09-18T12:14:34;33.33;25.01
43772;HTU21D;59066;54.782;32.024;2023-09-18T12:17:02;33.46;24.93
43772;HTU21D;59066;54.782;32.024;2023-09-18T12:19:31;33.66;24.61
43772;HTU21D;59066;54.782;32.024;2023-09-18T12:22:01;34.63;23.56
43772;HTU21D;59066;54.782;32.024;2023-09-18T12:24:32;35.27;22.45
43772;HTU21D;59066;54.782;32.024;2023-09-18T12:26:59;34.57;23.53
43772;HTU21D;59066;54.782;32.024;2023-09-18T12:29:27;34.97;23.24
43772;HTU21D;59066;54.782;32.024;2023-09-18T12:31:55;34.69;22.88
43772;HTU21D;59066;54.782;32.024;2023-09-18T12:34:22;34.23;23.11
43772;HTU21D;59066;54.782;32.024;2023-09-18T12:36:50;32.88;24.49
43772;HTU21D;59066;54.782;32.024;2023-09-18T12:39:18;32.45;25.02
43772;HTU21D;59066;54.782;32.024;2023-09-18T12:41:48;31.96;25.49
43772;HTU21D;59066;54.782;32.024;2023-09-18T12:44:16;30.96;26.56
43772;HTU21D;59066;54.782;32.024;2023-09-18T12:46:44;30.48;27.10
43772;HTU21D;59066;54.782;32.024;2023-09-18T12:49:30;30.03;28.42
43772;HTU21D;59066;54.782;32.024;2023-09-18T12:52:01;29.85;28.32
43772;HTU21D;59066;54.782;32.024;2023-09-18T12:54:43;29.21;30.03
43772;HTU21D;59066;54.782;32.024;2023-09-18T12:57:21;29.07;29.48
43772;HTU21D;59066;54.782;32.024;2023-09-18T12:59:48;28.86;30.03
43772;HTU21D;59066;54.782;32.024;2023-09-18T13:02:21;28.82;30.40
43772;HTU21D;59066;54.782;32.024;2023-09-18T13:04:56;28.83;30.62
43772;HTU21D;59066;54.782;32.024;2023-09-18T13:07:24;28.85;30.75
43772;HTU21D;59066;54.782;32.024;2023-09-18T13:10:03;28.28;32.36
43772;HTU21D;59066;54.782;32.024;2023-09-18T13:15:38;28.64;31.75
43772;HTU21D;59066;54.782;32.024;2023-09-18T13:18:10;28.17;32.43
43772;HTU21D;59066;54.782;32.024;2023-09-18T13:20:40;27.84;32.89
43772;HTU21D;59066;54.782;32.024;2023-09-18T13:23:08;27.80;33.28
43772;HTU21D;59066;54.782;32.024;2023-09-18T13:25:40;28.32;32.91
43772;HTU21D;59066;54.782;32.024;2023-09-18T13:28:12;28.84;32.37
43772;HTU21D;59066;54.782;32.024;2023-09-18T13:30:42;28.45;32.73
43772;HTU21D;59066;54.782;32.024;2023-09-18T13:33:11;28.01;33.55
43772;HTU21D;59066;54.782;32.024;2023-09-18T13:35:41;27.85;33.46
43772;HTU21D;59066;54.782;32.024;2023-09-18T13:38:09;27.73;33.63
43772;HTU21D;59066;54.782;32.024;2023-09-18T13:40:42;28.32;33.60
43772;HTU21D;59066;54.782;32.024;2023-09-18T13:43:10;29.19;32.74
43772;HTU21D;59066;54.782;32.024;2023-09-18T13:45:38;29.98;32.13
43772;HTU21D;59066;54.782;32.024;2023-09-18T13:48:06;30.87;31.26
43772;HTU21D;59066;54.782;32.024;2023-09-18T13:50:35;31.87;30.03
43772;HTU21D;59066;54.782;32.024;2023-09-18T13:53:03;32.58;29.06
43772;HTU21D;59066;54.782;32.024;2023-09-18T13:55:32;33.25;28.10
43772;HTU21D;59066;54.782;32.024;2023-09-18T13:58:00;33.66;27.21
43772;HTU21D;59066;54.782;32.024;2023-09-18T14:00:30;33.97;26.64
43772;HTU21D;59066;54.782;32.024;2023-09-18T14:02:58;34.23;26.04
43772;HTU21D;59066;54.782;32.024;2023-09-18T14:05:26;34.52;25.17
43772;HTU21D;59066;54.782;32.024;2023-09-18T14:07:58;34.77;24.17
43772;HTU21D;59066;54.782;32.024;2023-09-18T14:10:27;34.75;24.24
43772;HTU21D;59066;54.782;32.024;2023-09-18T14:12:55;34.81;23.95
43772;HTU21D;59066;54.782;32.024;2023-09-18T14:15:24;34.71;23.76
43772;HTU21D;59066;54.782;32.024;2023-09-18T14:17:52;34.40;23.88
43772;HTU21D;59066;54.782;32.024;2023-09-18T14:20:19;34.25;23.78
43772;HTU21D;59066;54.782;32.024;2023-09-18T14:22:47;33.72;24.23
43772;HTU21D;59066;54.782;32.024;2023-09-18T14:25:18;33.01;25.13
43772;HTU21D;59066;54.782;32.024;2023-09-18T14:27:47;32.93;25.18
43772;HTU21D;59066;54.782;32.024;2023-09-18T14:30:15;32.33;25.91
43772;HTU21D;59066;54.782;32.024;2023-09-18T14:32:42;31.73;26.62
43772;HTU21D;59066;54.782;32.024;2023-09-18T14:35:10;30.96;27.61
43772;HTU21D;59066;54.782;32.024;2023-09-18T14:37:37;30.54;28.09
43772;HTU21D;59066;54.782;32.024;2023-09-18T14:40:05;29.88;29.03
43772;HTU21D;59066;54.782;32.024;2023-09-18T14:42:37;29.52;29.33
43772;HTU21D;59066;54.782;32.024;2023-09-18T14:45:07;29.21;29.85
43772;HTU21D;59066;54.782;32.024;2023-09-18T14:47:36;28.73;30.60
43772;HTU21D;59066;54.782;32.024;2023-09-18T14:50:04;28.44;31.13
43772;HTU21D;59066;54.782;32.024;2023-09-18T14:52:32;28.05;31.86
43772;HTU21D;59066;54.782;32.024;2023-09-18T14:54:59;27.47;33.03
43772;HTU21D;59066;54.782;32.024;2023-09-18T14:57:29;27.10;33.80
43772;HTU21D;59066;54.782;32.024;2023-09-18T14:59:56;26.80;34.45
43772;HTU21D;59066;54.782;32.024;2023-09-18T15:02:24;26.58;34.89
43772;HTU21D;59066;54.782;32.024;2023-09-18T15:04:57;26.35;35.31
43772;HTU21D;59066;54.782;32.024;2023-09-18T15:07:24;26.17;35.73
43772;HTU21D;59066;54.782;32.024;2023-09-18T15:09:52;25.93;36.28
43772;HTU21D;59066;54.782;32.024;2023-09-18T15:12:19;25.81;36.41
43772;HTU21D;59066;54.782;32.024;2023-09-18T15:14:47;25.56;37.01
43772;HTU21D;59066;54.782;32.024;2023-09-18T15:17:14;25.31;37.57
43772;HTU21D;59066;54.782;32.024;2023-09-18T15:19:42;25.23;37.82
43772;HTU21D;59066;54.782;32.024;2023-09-18T15:22:10;25.08;38.10
43772;HTU21D;59066;54.782;32.024;2023-09-18T15:24:38;24.94;38.53
43772;HTU21D;59066;54.782;32.024;2023-09-18T15:27:05;24.79;38.89
43772;HTU21D;59066;54.782;32.024;2023-09-18T15:29:33;24.74;39.11